Wednesday, October 18, 2017, 3:41 AM EDT
Back to Local

KEKN, Jennings Randolph Field

Location: Elkins, WV, United States Lat: 38.883
Local Time: 3:41 AM EDT ( 7:41 GMT) Lon: -79.85
Time Zone: US/Eastern Elev: 1988 ft

Show me the last for .
Show Coded

Time T Td Feel RH Dir Speed Gust Alt SLP Vis Weather Sky Remarks
2017-10-18 03:21 32 29 - 88 - Calm - 30.36 - 4 BR SCT002 None
2017-10-18 03:19 32 29 - 88 - Calm - 30.36 - 1 BR SCT002 None
2017-10-18 03:08 32 30 - 92 - Calm - 30.36 - 0 BR VV002 None
2017-10-18 03:06 32 30 - 92 - Calm - 30.36 - 1 BR FEW002 Variable visibility
2017-10-18 02:54 33 30 - 88 - Calm - 30.36 - 3 BR CLR None
2017-10-18 02:51 32 30 - 92 - Calm - 30.36 30.40 1 BR CLR None
2017-10-18 02:35 33 30 - 88 - Calm - 30.36 - 1 BR FEW002 None
2017-10-18 01:51 33 30 - 88 - Calm - 30.36 30.40 8 FEW002 6-hr Min Temp (2am): 33.1°F
6-hr Max Temp (2am): 44.1°F
2017-10-18 01:31 34 31 - 88 - Calm - 30.35 - 6 BR FEW001 None
2017-10-18 00:51 35 31 - 84 - Calm - 30.35 30.40 10 CLR 24-hr Min Temp (1am): 34.0°F
24-hr Max Temp (1am): 62.1°F
2017-10-17 23:51 35 32 - 88 - Calm - 30.35 30.40 10 CLR None
2017-10-17 22:51 37 33 - 85 - Calm - 30.35 30.40 10 CLR None
2017-10-17 21:51 37 34 34 88 120° 3 - 30.34 30.40 10 CLR None
2017-10-17 20:51 41 35 - 79 - Calm - 30.32 30.37 10 CLR None
2017-10-17 19:51 43 36 - 76 - Calm - 30.31 30.37 10 CLR 6-hr Min Temp (8pm): 42.1°F
6-hr Max Temp (8pm): 62.1°F
2017-10-17 18:51 45 36 - 70 - Calm - 30.30 30.34 10 CLR None
2017-10-17 17:51 58 34 - 40 320° 7 - 30.29 30.32 10 CLR None
2017-10-17 16:51 62 34 - 34 320° 6 - 30.29 30.31 10 CLR None
2017-10-17 15:51 59 33 - 37 230° 3 - 30.30 30.33 10 CLR None
2017-10-17 14:51 58 33 - 38 - Calm - 30.31 30.34 10 CLR None
2017-10-17 13:51 55 30 - 38 - Calm - 30.34 30.37 10 CLR 6-hr Min Temp (2pm): 35.1°F
6-hr Max Temp (2pm): 57.0°F
2017-10-17 12:51 53 34 - 48 260° 3 - 30.37 30.41 10 CLR None
2017-10-17 11:51 47 40 - 76 - Calm - 30.39 30.43 10 CLR None
2017-10-17 11:32 44 39 - 82 - Calm - 30.40 - 10 FEW006 None
2017-10-17 11:25 45 39 - 79 - Calm - 30.40 - 10 BKN006 None
2017-10-17 11:02 41 38 - 88 - Calm - 30.41 - 10 OVC005 None
2017-10-17 10:51 40 38 - 92 - Calm - 30.41 30.47 10 OVC003 None
2017-10-17 10:27 38 36 - 92 - Calm - 30.41 - 3 BR OVC002 None
2017-10-17 10:01 37 35 34 92 150° 3 - 30.41 - 1 BR OVC002 None
2017-10-17 09:51 37 35 34 92 140° 3 - 30.41 30.47 0 BR OVC002 None
2017-10-17 09:26 37 35 - 92 - Calm - 30.41 - 0 FG VV002 None
2017-10-17 08:51 35 34 - 95 - Calm - 30.40 30.46 0 FG VV002 None
2017-10-17 07:51 35 33 32 92 130° 3 - 30.38 30.43 0 FG VV002 1-hr Precip Total: Trace
6-hr Precip Total (8am): 0.00"
24-hr Precip Total (8am): 0.06"
6-hr Min Temp (8am): 35.1°F
6-hr Max Temp (8am): 37.0°F
2017-10-17 07:49 36 34 32 93 130° 5 - 30.38 - 0 FG VV002 1-hr Precip Total: Trace
2017-10-17 07:16 35 33 31 92 120° 5 - 30.37 - 0 FG VV002 None
2017-10-17 07:05 36 34 33 92 220° 3 - 30.37 - 0 FG VV002 None
2017-10-17 06:51 36 34 32 92 210° 5 - 30.36 30.42 0 FG VV002 None
2017-10-17 06:47 36 34 - 93 - Calm - 30.36 - 0 FG VV002 None
2017-10-17 06:35 36 34 33 92 120° 3 - 30.36 - 0 FG VV002 None
2017-10-17 05:51 36 34 - 92 - Calm - 30.35 30.39 0 BR VV003 None
2017-10-17 04:51 37 35 - 92 - Calm - 30.33 30.37 0 BR VV002 None
2017-10-17 04:46 37 36 - 93 - Calm - 30.33 - 0 FG VV002 None
2017-10-17 04:29 37 35 - 92 - Calm - 30.33 - 0 FG VV002 None
2017-10-17 03:51 37 35 - 92 - Calm - 30.32 30.36 0 FG VV002 None

Support USWX by starting your Amazon purchase here.